createdAt,value
2022-09-03T00:00:55.889Z,3.95
2022-09-03T00:03:34.323Z,4.68
2022-09-03T00:06:12.468Z,4.38
2022-09-03T00:09:00.147Z,4.30
2022-09-03T00:11:40.638Z,3.05
2022-09-03T00:14:15.853Z,2.75
2022-09-03T00:17:08.940Z,4.20
2022-09-03T00:20:00.401Z,4.32
2022-09-03T00:22:41.918Z,3.80
2022-09-03T00:25:15.136Z,3.35
2022-09-03T00:30:14.565Z,4.25
2022-09-03T00:35:26.749Z,3.45
2022-09-03T00:37:54.174Z,3.40
2022-09-03T00:40:54.643Z,3.95
2022-09-03T00:43:21.375Z,2.88
2022-09-03T00:46:20.591Z,3.85
2022-09-03T00:48:50.241Z,2.97
2022-09-03T00:51:35.917Z,4.47
2022-09-03T00:54:21.091Z,5.22
2022-09-03T00:57:11.724Z,4.13
2022-09-03T00:59:44.415Z,4.32
2022-09-03T01:02:30.233Z,4.43
2022-09-03T01:05:11.968Z,4.22
2022-09-03T01:07:58.891Z,4.13
2022-09-03T01:10:57.902Z,2.80
2022-09-03T01:13:37.214Z,5.47
2022-09-03T01:16:07.012Z,3.55
2022-09-03T01:19:03.424Z,5.15
2022-09-03T01:21:52.486Z,4.28
2022-09-03T01:24:34.854Z,4.10
2022-09-03T01:27:39.214Z,4.03
2022-09-03T01:30:17.206Z,3.63
2022-09-03T01:33:09.458Z,3.88
2022-09-03T01:35:49.379Z,3.85
2022-09-03T01:38:50.827Z,4.25
2022-09-03T01:41:45.438Z,3.67
2022-09-03T01:44:48.495Z,4.00
2022-09-03T01:47:52.440Z,3.67
2022-09-03T01:50:34.799Z,3.45
2022-09-03T01:53:16.471Z,3.22
2022-09-03T01:56:21.204Z,4.15
2022-09-03T01:59:15.745Z,2.95
2022-09-03T02:01:49.587Z,4.68
2022-09-03T02:04:23.512Z,4.22
2022-09-03T02:06:51.558Z,4.28
2022-09-03T02:09:19.321Z,3.40
2022-09-03T02:11:54.228Z,3.88
2022-09-03T02:14:21.544Z,3.33
2022-09-03T02:16:48.269Z,4.05
2022-09-03T02:19:17.422Z,3.15
2022-09-03T02:21:50.701Z,4.20
2022-09-03T02:26:45.160Z,3.42
2022-09-03T02:29:13.567Z,3.65
2022-09-03T02:31:40.424Z,2.92
2022-09-03T02:34:07.527Z,4.20
2022-09-03T02:36:44.002Z,5.03
2022-09-03T02:39:10.694Z,3.65
2022-09-03T02:41:37.442Z,4.90
2022-09-03T02:44:07.421Z,3.67
2022-09-03T02:47:01.666Z,3.83
2022-09-03T02:49:28.850Z,4.40
2022-09-03T02:52:09.571Z,3.97
2022-09-03T02:54:40.201Z,4.10
2022-09-03T02:57:09.398Z,3.78
2022-09-03T02:59:36.703Z,5.10
2022-09-03T03:02:04.624Z,4.32
2022-09-03T03:04:32.729Z,3.90
2022-09-03T03:06:59.892Z,3.35
2022-09-03T03:09:26.637Z,3.78
2022-09-03T03:11:55.574Z,5.03
2022-09-03T03:14:22.840Z,3.85
2022-09-03T03:16:50.877Z,4.80
2022-09-03T03:19:17.829Z,3.85
2022-09-03T03:21:44.998Z,5.00
2022-09-03T03:24:11.972Z,3.90
2022-09-03T03:26:38.604Z,4.30
2022-09-03T03:29:05.526Z,5.03
2022-09-03T03:31:32.954Z,4.07
2022-09-03T03:34:02.788Z,4.05
2022-09-03T03:36:31.922Z,3.97
2022-09-03T03:39:00.161Z,3.28
2022-09-03T03:41:31.534Z,4.07
2022-09-03T03:44:03.938Z,4.57
2022-09-03T03:46:33.619Z,3.00
2022-09-03T03:49:01.188Z,3.65
2022-09-03T03:51:28.615Z,4.13
2022-09-03T03:53:56.942Z,4.30
2022-09-03T03:56:26.512Z,3.72
2022-09-03T03:58:53.978Z,5.30
2022-09-03T04:01:26.547Z,5.05
2022-09-03T04:03:56.335Z,3.42
2022-09-03T04:06:24.077Z,4.50
2022-09-03T04:08:50.990Z,3.60
2022-09-03T04:11:23.153Z,4.13
2022-09-03T04:13:51.598Z,4.18
2022-09-03T04:16:28.567Z,4.50
2022-09-03T04:18:57.098Z,4.72
2022-09-03T04:21:26.564Z,4.82
2022-09-03T04:23:56.100Z,4.65
2022-09-03T04:26:31.786Z,5.35
2022-09-03T04:29:04.028Z,3.72
2022-09-03T04:31:32.710Z,3.92
2022-09-03T04:33:59.941Z,4.30
2022-09-03T04:36:28.939Z,3.40
2022-09-03T04:38:58.619Z,4.65
2022-09-03T04:41:28.676Z,4.05
2022-09-03T04:43:57.291Z,4.82
2022-09-03T04:46:27.164Z,5.00
2022-09-03T04:48:55.751Z,4.03
2022-09-03T04:51:25.407Z,3.47
2022-09-03T04:54:00.397Z,4.05
2022-09-03T04:56:29.922Z,4.93
2022-09-03T04:58:58.927Z,4.00
2022-09-03T05:01:29.021Z,4.38
2022-09-03T05:03:58.172Z,4.70
2022-09-03T05:06:26.796Z,4.65
2022-09-03T05:08:55.641Z,4.82
2022-09-03T05:11:23.315Z,5.90
2022-09-03T05:13:52.738Z,3.97
2022-09-03T05:16:20.256Z,6.68
2022-09-03T05:18:48.044Z,4.80
2022-09-03T05:21:17.971Z,4.40
2022-09-03T05:23:47.117Z,4.47
2022-09-03T05:26:19.303Z,5.20
2022-09-03T05:28:46.366Z,5.53
2022-09-03T05:31:18.707Z,4.25
2022-09-03T05:33:52.854Z,4.90
2022-09-03T05:36:24.271Z,3.78
2022-09-03T05:38:54.280Z,3.33
2022-09-03T05:41:22.391Z,5.25
2022-09-03T05:43:55.305Z,4.25
2022-09-03T05:46:26.349Z,5.07
2022-09-03T05:48:53.063Z,3.85
2022-09-03T05:51:19.959Z,4.03
2022-09-03T05:53:48.803Z,5.70
2022-09-03T05:56:21.351Z,4.72
2022-09-03T05:58:50.686Z,4.07
2022-09-03T06:01:26.700Z,4.60
2022-09-03T06:04:04.625Z,4.13
2022-09-03T06:06:34.187Z,3.85
2022-09-03T06:09:03.828Z,3.95
2022-09-03T06:11:32.993Z,4.82
2022-09-03T06:14:05.947Z,4.47
2022-09-03T06:16:34.198Z,4.10
2022-09-03T06:19:01.541Z,3.53
2022-09-03T06:21:28.823Z,5.22
2022-09-03T06:23:58.466Z,4.30
2022-09-03T06:26:29.199Z,4.32
2022-09-03T06:28:57.227Z,4.65
2022-09-03T06:31:24.488Z,3.67
2022-09-03T06:34:04.174Z,5.18
2022-09-03T06:36:31.232Z,4.90
2022-09-03T06:38:58.712Z,4.15
2022-09-03T06:41:33.219Z,4.97
2022-09-03T06:44:06.552Z,3.92
2022-09-03T06:46:35.467Z,5.03
2022-09-03T06:49:02.426Z,4.15
2022-09-03T06:51:30.884Z,4.55
2022-09-03T06:54:03.617Z,4.15
2022-09-03T06:56:33.063Z,4.38
2022-09-03T06:59:06.484Z,5.25
2022-09-03T07:01:34.381Z,3.95
2022-09-03T07:04:05.773Z,3.60
2022-09-03T07:06:38.925Z,3.78
2022-09-03T07:11:37.402Z,3.38
2022-09-03T07:14:05.206Z,5.13
2022-09-03T07:16:37.227Z,4.97
2022-09-03T07:19:07.494Z,3.67
2022-09-03T07:21:36.960Z,4.53
2022-09-03T07:24:05.958Z,6.88
2022-09-03T07:26:39.085Z,5.30
2022-09-03T07:31:38.057Z,4.10
2022-09-03T07:34:10.062Z,4.43
2022-09-03T07:36:43.193Z,4.00
2022-09-03T07:39:12.713Z,4.78
2022-09-03T07:41:43.419Z,5.00
2022-09-03T07:44:10.715Z,4.68
2022-09-03T07:46:38.944Z,4.28
2022-09-03T07:49:06.553Z,4.90
2022-09-03T07:51:38.561Z,4.43
2022-09-03T07:54:10.103Z,5.18
2022-09-03T07:56:37.878Z,4.60
2022-09-03T07:59:05.698Z,4.35
2022-09-03T08:01:34.022Z,5.68
2022-09-03T08:04:02.260Z,6.38
2022-09-03T08:06:31.336Z,5.95
2022-09-03T08:09:04.841Z,4.18
2022-09-03T08:11:35.310Z,5.63
2022-09-03T08:14:07.786Z,5.70
2022-09-03T08:16:38.109Z,6.03
2022-09-03T08:19:05.351Z,5.05
2022-09-03T08:21:32.279Z,5.45
2022-09-03T08:24:05.887Z,5.07
2022-09-03T08:26:35.273Z,6.03
2022-09-03T08:29:02.623Z,5.15
2022-09-03T08:31:30.171Z,5.43
2022-09-03T08:33:59.405Z,4.82
2022-09-03T08:36:30.215Z,5.13
2022-09-03T08:38:58.719Z,5.25
2022-09-03T08:41:45.001Z,5.97
2022-09-03T08:44:17.726Z,5.82
2022-09-03T08:46:51.412Z,8.20
2022-09-03T08:49:37.745Z,5.43
2022-09-03T08:52:15.533Z,5.90
2022-09-03T08:54:42.688Z,5.60
2022-09-03T08:57:09.907Z,5.50
2022-09-03T08:59:37.420Z,6.15
2022-09-03T09:02:16.973Z,5.63
2022-09-03T09:05:14.354Z,6.78
2022-09-03T09:08:10.628Z,6.57
2022-09-03T09:10:37.334Z,6.70
2022-09-03T09:13:20.667Z,6.03
2022-09-03T09:18:38.484Z,5.60
2022-09-03T09:21:22.017Z,6.47
2022-09-03T09:23:51.679Z,4.32
2022-09-03T09:26:24.310Z,5.40
2022-09-03T09:29:09.528Z,6.43
2022-09-03T09:31:40.172Z,6.82
2022-09-03T09:34:08.632Z,6.53
2022-09-03T09:36:52.381Z,5.93
2022-09-03T09:39:19.965Z,4.95
2022-09-03T09:42:23.238Z,5.78
2022-09-03T09:44:50.023Z,5.63
2022-09-03T09:47:35.982Z,6.03
2022-09-03T09:50:04.100Z,5.68
2022-09-03T09:52:31.785Z,5.47
2022-09-03T09:55:10.783Z,7.28
2022-09-03T09:57:39.671Z,4.50
2022-09-03T10:00:13.624Z,6.35
2022-09-03T10:02:47.376Z,5.70
2022-09-03T10:05:20.004Z,5.80
2022-09-03T10:07:59.480Z,6.30
2022-09-03T10:10:27.339Z,6.20
2022-09-03T10:13:03.128Z,5.53
2022-09-03T10:15:29.820Z,5.90
2022-09-03T10:18:28.850Z,6.25
2022-09-03T10:21:11.224Z,6.07
2022-09-03T10:24:07.489Z,5.97
2022-09-03T10:26:37.066Z,8.55
2022-09-03T10:29:07.166Z,5.97
2022-09-03T10:31:54.419Z,5.70
2022-09-03T10:35:05.538Z,5.22
2022-09-03T10:37:55.874Z,5.35
2022-09-03T10:40:50.705Z,7.05
2022-09-03T10:43:33.332Z,5.60
2022-09-03T10:46:06.582Z,5.60
2022-09-03T10:49:18.367Z,5.93
2022-09-03T10:52:02.241Z,6.80
2022-09-03T10:54:55.396Z,5.85
2022-09-03T10:57:43.915Z,6.10
2022-09-03T11:00:13.290Z,6.10
2022-09-03T11:02:41.283Z,5.97
2022-09-03T11:05:19.130Z,6.00
2022-09-03T11:08:12.575Z,5.85
2022-09-03T11:13:14.296Z,7.85
2022-09-03T11:16:20.283Z,6.00
2022-09-03T11:18:54.131Z,5.75
2022-09-03T11:21:26.326Z,6.47
2022-09-03T11:24:04.384Z,7.10
2022-09-03T11:26:32.117Z,5.75
2022-09-03T11:29:10.202Z,6.75
2022-09-03T11:31:49.961Z,5.70
2022-09-03T11:34:23.405Z,7.00
2022-09-03T11:37:17.583Z,5.30
2022-09-03T11:39:45.583Z,6.80
2022-09-03T11:42:24.121Z,6.10
2022-09-03T11:44:52.124Z,6.45
2022-09-03T11:47:24.750Z,6.40
2022-09-03T11:49:54.168Z,6.30
2022-09-03T11:52:32.615Z,6.10
2022-09-03T11:54:59.359Z,6.68
2022-09-03T11:57:29.900Z,5.20
2022-09-03T12:00:13.301Z,6.45
2022-09-03T12:02:54.287Z,6.00
2022-09-03T12:05:32.938Z,6.45
2022-09-03T12:08:21.507Z,5.63
2022-09-03T12:10:54.431Z,5.28
2022-09-03T12:13:40.603Z,5.80
2022-09-03T12:16:29.119Z,6.30
2022-09-03T12:19:01.041Z,5.88
2022-09-03T12:21:27.786Z,6.78
2022-09-03T12:23:58.068Z,6.22
2022-09-03T12:26:27.626Z,6.65
2022-09-03T12:28:59.184Z,6.55
2022-09-03T12:31:29.848Z,7.88
2022-09-03T12:33:59.642Z,5.63
2022-09-03T12:36:37.052Z,7.10
2022-09-03T12:39:12.678Z,5.85
2022-09-03T12:41:52.469Z,5.47
2022-09-03T12:44:30.129Z,5.38
2022-09-03T12:50:07.413Z,5.88
2022-09-03T12:52:43.548Z,5.05
2022-09-03T12:55:51.678Z,6.32
2022-09-03T12:58:25.747Z,5.47
2022-09-03T13:01:01.152Z,5.53
2022-09-03T13:03:32.666Z,5.78
2022-09-03T13:06:03.586Z,6.25
2022-09-03T13:08:41.463Z,6.28
2022-09-03T13:11:08.175Z,6.35
2022-09-03T13:13:37.841Z,6.32
2022-09-03T13:16:33.087Z,6.07
2022-09-03T13:19:29.523Z,5.95
2022-09-03T13:22:27.387Z,5.85
2022-09-03T13:25:12.879Z,5.07
2022-09-03T13:27:54.044Z,5.10
2022-09-03T13:30:23.452Z,6.35
2022-09-03T13:33:02.568Z,6.18
2022-09-03T13:35:40.346Z,5.00
2022-09-03T13:38:10.190Z,6.45
2022-09-03T13:40:48.723Z,5.97
2022-09-03T13:43:42.626Z,6.55
2022-09-03T13:46:27.464Z,6.15
2022-09-03T13:49:28.022Z,6.78
2022-09-03T13:52:04.123Z,6.20
2022-09-03T13:54:48.547Z,5.97
2022-09-03T13:57:32.839Z,5.63
2022-09-03T13:59:59.521Z,6.13
2022-09-03T14:02:54.249Z,6.20
2022-09-03T14:06:02.768Z,6.43
2022-09-03T14:09:12.696Z,6.10
2022-09-03T14:12:03.167Z,6.28
2022-09-03T14:14:51.675Z,7.55
2022-09-03T14:17:45.917Z,5.65
2022-09-03T14:20:21.157Z,6.28
2022-09-03T14:23:02.507Z,4.65
2022-09-03T14:25:29.706Z,7.07
2022-09-03T14:28:14.518Z,5.93
2022-09-03T14:30:55.755Z,7.18
2022-09-03T14:33:38.179Z,5.97
2022-09-03T14:36:10.976Z,6.50
2022-09-03T14:38:53.960Z,5.80
2022-09-03T14:41:57.281Z,5.47
2022-09-03T14:44:54.860Z,6.03
2022-09-03T14:47:53.915Z,6.20
2022-09-03T14:50:45.413Z,6.05
2022-09-03T14:53:12.197Z,5.30
2022-09-03T14:55:41.775Z,5.78
2022-09-03T14:58:46.959Z,6.20
2022-09-03T15:01:39.060Z,5.85
2022-09-03T15:04:28.638Z,6.20
2022-09-03T15:07:24.168Z,5.45
2022-09-03T15:10:10.655Z,5.25
2022-09-03T15:12:58.672Z,5.07
2022-09-03T15:15:38.574Z,5.63
2022-09-03T15:18:21.467Z,5.43
2022-09-03T15:21:05.380Z,5.50
2022-09-03T15:24:00.024Z,5.40
2022-09-03T15:26:29.721Z,5.78
2022-09-03T15:29:06.344Z,6.57
2022-09-03T15:32:11.759Z,5.70
2022-09-03T15:34:55.291Z,6.38
2022-09-03T15:37:46.650Z,5.50
2022-09-03T15:40:34.854Z,5.45
2022-09-03T15:43:16.051Z,5.55
2022-09-03T15:46:10.946Z,6.43
2022-09-03T15:49:05.668Z,6.13
2022-09-03T15:51:47.245Z,6.22
2022-09-03T15:54:27.276Z,6.38
2022-09-03T15:57:01.849Z,7.25
2022-09-03T15:59:55.565Z,6.20
2022-09-03T16:02:52.497Z,6.00
2022-09-03T16:05:39.387Z,7.35
2022-09-03T16:08:29.916Z,5.95
2022-09-03T16:11:28.884Z,6.20
2022-09-03T16:14:21.985Z,6.95
2022-09-03T16:17:40.204Z,6.55
2022-09-03T16:20:15.215Z,7.00
2022-09-03T16:22:50.314Z,6.30
2022-09-03T16:25:28.992Z,5.95
2022-09-03T16:28:10.294Z,6.90
2022-09-03T16:30:39.535Z,6.50
2022-09-03T16:33:22.495Z,6.97
2022-09-03T16:36:06.403Z,5.60
2022-09-03T16:39:12.826Z,6.78
2022-09-03T16:41:48.577Z,5.07
2022-09-03T16:44:38.863Z,5.85
2022-09-03T16:47:20.539Z,6.28
2022-09-03T16:50:14.376Z,5.78
2022-09-03T16:56:00.111Z,5.45
2022-09-03T16:59:09.780Z,5.85
2022-09-03T17:01:36.637Z,5.55
2022-09-03T17:04:15.755Z,7.03
2022-09-03T17:06:54.561Z,4.95
2022-09-03T17:09:47.205Z,5.38
2022-09-03T17:12:39.031Z,6.00
2022-09-03T17:15:34.644Z,6.50
2022-09-03T17:18:28.768Z,5.53
2022-09-03T17:21:26.426Z,5.97
2022-09-03T17:24:20.623Z,5.22
2022-09-03T17:27:11.272Z,5.50
2022-09-03T17:29:56.641Z,5.35
2022-09-03T17:32:32.395Z,7.45
2022-09-03T17:35:16.314Z,6.03
2022-09-03T17:38:14.058Z,6.38
2022-09-03T17:41:03.613Z,6.25
2022-09-03T17:43:55.543Z,5.35
2022-09-03T17:46:31.338Z,5.28
2022-09-03T17:49:03.168Z,5.72
2022-09-03T17:51:58.511Z,6.40
2022-09-03T17:54:38.384Z,6.03
2022-09-03T17:57:30.975Z,5.18
2022-09-03T18:00:03.079Z,6.20
2022-09-03T18:02:43.333Z,6.25
2022-09-03T18:05:24.341Z,7.40
2022-09-03T18:07:57.175Z,5.68
2022-09-03T18:10:42.121Z,7.05
2022-09-03T18:13:50.422Z,5.28
2022-09-03T18:16:31.918Z,6.28
2022-09-03T18:19:18.338Z,5.15
2022-09-03T18:22:06.232Z,7.88
2022-09-03T18:25:01.962Z,7.95
2022-09-03T18:28:05.513Z,14.07
2022-09-03T18:30:53.194Z,11.40
2022-09-03T18:33:43.996Z,9.80
2022-09-03T18:36:32.422Z,8.23
2022-09-03T18:39:26.695Z,7.15
2022-09-03T18:42:24.545Z,6.93
2022-09-03T18:46:05.525Z,7.20
2022-09-03T18:52:04.823Z,6.65
2022-09-03T18:55:07.765Z,7.43
2022-09-03T19:01:16.367Z,7.22
2022-09-03T19:04:24.492Z,8.00
2022-09-03T19:07:26.257Z,8.23
2022-09-03T19:10:36.401Z,6.95
2022-09-03T19:13:30.697Z,6.40
2022-09-03T19:16:28.403Z,6.03
2022-09-03T19:19:42.184Z,5.50
2022-09-03T19:22:29.271Z,6.78
2022-09-03T19:25:23.584Z,5.65
2022-09-03T19:28:44.311Z,5.88
2022-09-03T19:31:54.776Z,4.60
2022-09-03T19:35:04.965Z,5.72
2022-09-03T19:38:04.361Z,6.20
2022-09-03T19:40:58.774Z,7.30
2022-09-03T19:43:56.272Z,5.65
2022-09-03T19:50:18.769Z,6.57
2022-09-03T19:53:11.911Z,5.47
2022-09-03T19:56:07.142Z,4.68
2022-09-03T20:01:56.427Z,5.18
2022-09-03T20:04:50.147Z,7.63
2022-09-03T20:07:37.248Z,4.95
2022-09-03T20:10:23.704Z,5.63
2022-09-03T20:12:59.290Z,5.72
2022-09-03T20:15:51.917Z,5.72
2022-09-03T20:18:36.181Z,5.80
2022-09-03T20:21:22.045Z,4.88
2022-09-03T20:24:04.959Z,5.10
2022-09-03T20:26:59.550Z,4.63
2022-09-03T20:29:52.631Z,5.05
2022-09-03T20:32:54.150Z,5.75
2022-09-03T20:35:25.682Z,4.65
2022-09-03T20:38:07.557Z,6.05
2022-09-03T20:41:12.627Z,4.55
2022-09-03T20:43:55.715Z,4.93
2022-09-03T20:46:28.435Z,4.68
2022-09-03T20:49:05.435Z,5.00
2022-09-03T20:52:06.565Z,5.40
2022-09-03T20:54:38.723Z,4.53
2022-09-03T20:57:23.239Z,5.28
2022-09-03T21:00:14.161Z,6.25
2022-09-03T21:03:00.137Z,5.22
2022-09-03T21:05:38.226Z,4.65
2022-09-03T21:08:30.027Z,6.55
2022-09-03T21:11:04.254Z,5.18
2022-09-03T21:14:09.927Z,5.55
2022-09-03T21:16:45.705Z,5.78
2022-09-03T21:19:48.882Z,4.65
2022-09-03T21:22:24.724Z,5.30
2022-09-03T21:24:58.578Z,5.07
2022-09-03T21:27:35.230Z,5.65
2022-09-03T21:30:13.110Z,5.03
2022-09-03T21:32:42.921Z,5.90
2022-09-03T21:35:30.558Z,4.40
2022-09-03T21:38:05.891Z,4.50
2022-09-03T21:40:35.079Z,5.88
2022-09-03T21:43:15.246Z,4.10
2022-09-03T21:46:06.280Z,4.25
2022-09-03T21:48:56.851Z,4.88
2022-09-03T21:51:26.593Z,4.55
2022-09-03T21:54:14.126Z,4.70
2022-09-03T21:57:02.463Z,5.25
2022-09-03T21:59:35.224Z,5.78
2022-09-03T22:02:27.332Z,5.03
2022-09-03T22:04:56.296Z,5.63
2022-09-03T22:08:00.697Z,5.13
2022-09-03T22:11:05.650Z,5.35
2022-09-03T22:13:47.783Z,5.47
2022-09-03T22:16:30.366Z,6.38
2022-09-03T22:18:57.497Z,5.47
2022-09-03T22:21:36.670Z,5.32
2022-09-03T22:24:23.269Z,5.22
2022-09-03T22:27:02.952Z,5.28
2022-09-03T22:29:41.059Z,4.63
2022-09-03T22:32:35.739Z,5.28
2022-09-03T22:35:29.771Z,6.05
2022-09-03T22:38:14.744Z,6.03
2022-09-03T22:41:22.969Z,5.53
2022-09-03T22:43:54.668Z,4.65
2022-09-03T22:46:23.539Z,5.05
2022-09-03T22:48:53.380Z,6.05
2022-09-03T22:51:21.896Z,5.28
2022-09-03T22:54:28.375Z,4.80
2022-09-03T22:56:58.148Z,4.22
2022-09-03T22:59:47.767Z,4.38
2022-09-03T23:02:20.943Z,4.05
2022-09-03T23:05:06.287Z,5.32
2022-09-03T23:07:48.076Z,5.47
2022-09-03T23:10:26.059Z,4.95
2022-09-03T23:13:21.207Z,4.70
2022-09-03T23:16:01.374Z,4.57
2022-09-03T23:18:30.999Z,5.60
2022-09-03T23:21:31.968Z,5.38
2022-09-03T23:24:05.878Z,4.93
2022-09-03T23:26:40.530Z,5.30
2022-09-03T23:29:46.070Z,5.05
2022-09-03T23:32:13.010Z,4.57
2022-09-03T23:34:40.761Z,5.00
2022-09-03T23:38:18.306Z,5.30
2022-09-03T23:40:49.882Z,4.18
2022-09-03T23:43:41.132Z,6.88
2022-09-03T23:46:17.079Z,4.72
2022-09-03T23:49:13.918Z,4.63
2022-09-03T23:51:55.971Z,4.78
2022-09-03T23:54:22.659Z,5.22
2022-09-03T23:57:08.393Z,6.15
